Flugplatz Gunzenhausen-Reutberg (EDMH)

Hier findest Du alle Informationen zum Flugplatz Gunzenhausen-Reutberg (EDMH).

Informationen für Piloten zum Flugplatz Gunzenhausen-Reutberg

Hier findest Du alle relevanten Informationen, die Du als Pilot benötigst, um Gunzenhausen-Reutberg anzufliegen.

Flugplatz: Gunzenhausen-Reutberg ICAO-Code: EDMH
Frequenz Turm: 118,550 Mhz GAFOR Gebiet: 55
Frequenz Ground: 118,550 Mhz Mogas: nein
Platzrunde: SE 2300 ft Landegebühr: -
Platzhöhe: - Sunrise: 07:03 Uhr UTC
Pisten: 06/24 - 530 m x 15 m, ASPH Sunset: 15:50 Uhr UTC

Mitglieder, die in Gunzenhausen-Reutberg fliegen

Flugwetter am Flugplatz Gunzenhausen-Reutberg

Die METAR Information stammen aus EDDN (48.18 km entfernt).

METAR Code:
2021/01/15 17:50
EDDN 151750Z 30005KT 9999 -SN FEW016 SCT022 M01/M03 Q1024 R10/190095 NOSIG

Flugschulen am Flugplatz Gunzenhausen-Reutberg

Am Flugplatz Gunzenhausen-Reutberg gibt es leider keine Flugschule.

Benachbarte Flugplätze und Flugschulen

Es gibt 23 weitere Flugplätze in einem Umkreis von 50 km um den Flugplatz Gunzenhausen-Reutberg.

Jetzt anmelden

Passwort vergessen

Umfrage Archiv

Seid Ihr aufgrund von Corona im Jahr 2020 mehr oder weniger geflogen als im Jahr zuvor?

weniger
45.9 %
gleich viel
32.4 %
mehr
21.6 %
Stimmen: 37 | Diskussion
Anzeige: Roland Aircraft
Statistik Alle Mitglieder

Aktuell sind 52 Besucher online, davon 1 Mitglied und 51 Gäste.


Mitglieder online:
Schnickes 

Anzeige: VFR Sprechfunk Simulator


Anzeige: Pocket FMS